sensor_id;sensor_type;location;lat;lon;timestamp;temperature;humidity
69895;DHT22;57172;52.034;5.090;2023-11-19T00:00:09;14.30;99.40
69895;DHT22;57172;52.034;5.090;2023-11-19T00:02:38;14.40;99.70
69895;DHT22;57172;52.034;5.090;2023-11-19T00:05:05;14.40;99.50
69895;DHT22;57172;52.034;5.090;2023-11-19T00:07:36;14.40;99.30
69895;DHT22;57172;52.034;5.090;2023-11-19T00:10:04;14.40;99.40
69895;DHT22;57172;52.034;5.090;2023-11-19T00:12:34;14.40;99.50
69895;DHT22;57172;52.034;5.090;2023-11-19T00:15:01;14.40;99.60
69895;DHT22;57172;52.034;5.090;2023-11-19T00:17:28;14.40;99.40
69895;DHT22;57172;52.034;5.090;2023-11-19T00:19:55;14.40;99.40
69895;DHT22;57172;52.034;5.090;2023-11-19T00:22:22;14.40;99.40
69895;DHT22;57172;52.034;5.090;2023-11-19T00:24:49;14.40;99.50
69895;DHT22;57172;52.034;5.090;2023-11-19T00:27:16;14.50;99.60
69895;DHT22;57172;52.034;5.090;2023-11-19T00:29:44;14.50;99.60
69895;DHT22;57172;52.034;5.090;2023-11-19T00:32:13;14.50;99.50
69895;DHT22;57172;52.034;5.090;2023-11-19T00:34:40;14.50;99.10
69895;DHT22;57172;52.034;5.090;2023-11-19T00:37:07;14.50;99.40
69895;DHT22;57172;52.034;5.090;2023-11-19T00:39:34;14.50;99.30
69895;DHT22;57172;52.034;5.090;2023-11-19T00:42:00;14.50;99.20
69895;DHT22;57172;52.034;5.090;2023-11-19T00:44:27;14.50;98.70
69895;DHT22;57172;52.034;5.090;2023-11-19T00:46:54;14.50;98.70
69895;DHT22;57172;52.034;5.090;2023-11-19T00:49:21;14.50;98.40
69895;DHT22;57172;52.034;5.090;2023-11-19T00:51:48;14.50;98.20
69895;DHT22;57172;52.034;5.090;2023-11-19T00:54:16;14.40;98.30
69895;DHT22;57172;52.034;5.090;2023-11-19T00:56:43;14.40;98.10
69895;DHT22;57172;52.034;5.090;2023-11-19T00:59:10;14.40;98.20
69895;DHT22;57172;52.034;5.090;2023-11-19T01:01:37;14.40;98.30
69895;DHT22;57172;52.034;5.090;2023-11-19T01:04:04;14.40;98.80
69895;DHT22;57172;52.034;5.090;2023-11-19T01:06:31;14.40;98.00
69895;DHT22;57172;52.034;5.090;2023-11-19T01:08:58;14.40;97.90
69895;DHT22;57172;52.034;5.090;2023-11-19T01:11:25;14.40;98.30
69895;DHT22;57172;52.034;5.090;2023-11-19T01:13:53;14.40;98.10
69895;DHT22;57172;52.034;5.090;2023-11-19T01:16:20;14.40;98.10
69895;DHT22;57172;52.034;5.090;2023-11-19T01:18:47;14.40;98.40
69895;DHT22;57172;52.034;5.090;2023-11-19T01:21:15;14.40;98.00
69895;DHT22;57172;52.034;5.090;2023-11-19T01:23:43;14.40;97.90
69895;DHT22;57172;52.034;5.090;2023-11-19T01:26:12;14.40;98.10
69895;DHT22;57172;52.034;5.090;2023-11-19T01:28:40;14.40;97.60
69895;DHT22;57172;52.034;5.090;2023-11-19T01:31:17;14.40;97.00
69895;DHT22;57172;52.034;5.090;2023-11-19T01:33:44;14.40;97.40
69895;DHT22;57172;52.034;5.090;2023-11-19T01:36:13;14.30;97.10
69895;DHT22;57172;52.034;5.090;2023-11-19T01:38:40;14.30;97.30
69895;DHT22;57172;52.034;5.090;2023-11-19T01:41:07;14.30;97.20
69895;DHT22;57172;52.034;5.090;2023-11-19T01:43:35;14.30;97.10
69895;DHT22;57172;52.034;5.090;2023-11-19T01:46:05;14.30;97.10
69895;DHT22;57172;52.034;5.090;2023-11-19T01:48:34;14.20;97.00
69895;DHT22;57172;52.034;5.090;2023-11-19T01:51:03;14.20;96.70
69895;DHT22;57172;52.034;5.090;2023-11-19T01:53:31;14.10;96.60
69895;DHT22;57172;52.034;5.090;2023-11-19T01:55:59;14.10;96.80
69895;DHT22;57172;52.034;5.090;2023-11-19T01:58:27;14.00;96.60
69895;DHT22;57172;52.034;5.090;2023-11-19T02:00:54;14.00;96.30
69895;DHT22;57172;52.034;5.090;2023-11-19T02:03:21;13.90;96.40
69895;DHT22;57172;52.034;5.090;2023-11-19T02:05:49;13.90;96.50
69895;DHT22;57172;52.034;5.090;2023-11-19T02:08:17;13.80;96.50
69895;DHT22;57172;52.034;5.090;2023-11-19T02:10:44;13.80;96.50
69895;DHT22;57172;52.034;5.090;2023-11-19T02:13:11;13.80;96.80
69895;DHT22;57172;52.034;5.090;2023-11-19T02:15:41;13.70;96.80
69895;DHT22;57172;52.034;5.090;2023-11-19T02:18:24;13.70;96.50
69895;DHT22;57172;52.034;5.090;2023-11-19T02:20:55;13.60;96.10
69895;DHT22;57172;52.034;5.090;2023-11-19T02:23:23;13.60;96.10
69895;DHT22;57172;52.034;5.090;2023-11-19T02:26:18;13.60;96.50
69895;DHT22;57172;52.034;5.090;2023-11-19T02:28:50;13.50;96.50
69895;DHT22;57172;52.034;5.090;2023-11-19T02:31:17;13.50;96.20
69895;DHT22;57172;52.034;5.090;2023-11-19T02:33:44;13.40;96.40
69895;DHT22;57172;52.034;5.090;2023-11-19T02:36:11;13.40;96.60
69895;DHT22;57172;52.034;5.090;2023-11-19T02:38:38;13.40;96.10
69895;DHT22;57172;52.034;5.090;2023-11-19T02:41:05;13.30;96.10
69895;DHT22;57172;52.034;5.090;2023-11-19T02:43:33;13.30;96.10
69895;DHT22;57172;52.034;5.090;2023-11-19T02:46:02;13.30;96.20
69895;DHT22;57172;52.034;5.090;2023-11-19T02:48:41;13.30;96.10
69895;DHT22;57172;52.034;5.090;2023-11-19T02:51:10;13.20;96.30
69895;DHT22;57172;52.034;5.090;2023-11-19T02:53:37;13.20;96.30
69895;DHT22;57172;52.034;5.090;2023-11-19T02:56:07;13.20;96.30
69895;DHT22;57172;52.034;5.090;2023-11-19T02:58:52;13.20;96.10
69895;DHT22;57172;52.034;5.090;2023-11-19T03:01:24;13.10;96.30
69895;DHT22;57172;52.034;5.090;2023-11-19T03:03:57;13.10;96.30
69895;DHT22;57172;52.034;5.090;2023-11-19T03:06:25;13.10;96.20
69895;DHT22;57172;52.034;5.090;2023-11-19T03:08:52;13.00;96.00
69895;DHT22;57172;52.034;5.090;2023-11-19T03:11:19;13.00;96.20
69895;DHT22;57172;52.034;5.090;2023-11-19T03:13:46;13.00;96.00
69895;DHT22;57172;52.034;5.090;2023-11-19T03:16:13;13.00;95.70
69895;DHT22;57172;52.034;5.090;2023-11-19T03:18:40;13.00;95.90
69895;DHT22;57172;52.034;5.090;2023-11-19T03:21:07;12.90;96.00
69895;DHT22;57172;52.034;5.090;2023-11-19T03:23:35;12.90;96.00
69895;DHT22;57172;52.034;5.090;2023-11-19T03:26:03;12.90;96.20
69895;DHT22;57172;52.034;5.090;2023-11-19T03:28:32;12.90;95.90
69895;DHT22;57172;52.034;5.090;2023-11-19T03:30:59;12.90;95.90
69895;DHT22;57172;52.034;5.090;2023-11-19T03:33:26;12.80;95.70
69895;DHT22;57172;52.034;5.090;2023-11-19T03:35:56;12.80;95.90
69895;DHT22;57172;52.034;5.090;2023-11-19T03:38:24;12.80;95.90
69895;DHT22;57172;52.034;5.090;2023-11-19T03:40:53;12.80;95.60
69895;DHT22;57172;52.034;5.090;2023-11-19T03:43:20;12.80;95.40
69895;DHT22;57172;52.034;5.090;2023-11-19T03:45:47;12.70;95.20
69895;DHT22;57172;52.034;5.090;2023-11-19T03:48:15;12.70;94.80
69895;DHT22;57172;52.034;5.090;2023-11-19T03:50:45;12.70;95.10
69895;DHT22;57172;52.034;5.090;2023-11-19T03:53:12;12.70;95.40
69895;DHT22;57172;52.034;5.090;2023-11-19T03:55:40;12.70;94.90
69895;DHT22;57172;52.034;5.090;2023-11-19T03:58:07;12.60;94.50
69895;DHT22;57172;52.034;5.090;2023-11-19T04:00:34;12.60;95.10
69895;DHT22;57172;52.034;5.090;2023-11-19T04:03:01;12.60;95.00
69895;DHT22;57172;52.034;5.090;2023-11-19T04:05:28;12.60;95.00
69895;DHT22;57172;52.034;5.090;2023-11-19T04:07:55;12.60;94.90
69895;DHT22;57172;52.034;5.090;2023-11-19T04:10:21;12.60;94.70
69895;DHT22;57172;52.034;5.090;2023-11-19T04:12:49;12.60;95.00
69895;DHT22;57172;52.034;5.090;2023-11-19T04:15:16;12.60;95.30
69895;DHT22;57172;52.034;5.090;2023-11-19T04:17:44;12.60;95.10
69895;DHT22;57172;52.034;5.090;2023-11-19T04:20:11;12.60;94.90
69895;DHT22;57172;52.034;5.090;2023-11-19T04:22:41;12.50;95.00
69895;DHT22;57172;52.034;5.090;2023-11-19T04:25:08;12.50;95.00
69895;DHT22;57172;52.034;5.090;2023-11-19T04:27:35;12.60;94.90
69895;DHT22;57172;52.034;5.090;2023-11-19T04:30:02;12.50;94.90
69895;DHT22;57172;52.034;5.090;2023-11-19T04:32:30;12.50;94.80
69895;DHT22;57172;52.034;5.090;2023-11-19T04:34:57;12.50;94.50
69895;DHT22;57172;52.034;5.090;2023-11-19T04:37:24;12.50;94.60
69895;DHT22;57172;52.034;5.090;2023-11-19T04:39:51;12.50;94.50
69895;DHT22;57172;52.034;5.090;2023-11-19T04:42:18;12.40;94.20
69895;DHT22;57172;52.034;5.090;2023-11-19T04:44:46;12.50;94.70
69895;DHT22;57172;52.034;5.090;2023-11-19T04:47:13;12.50;94.70
69895;DHT22;57172;52.034;5.090;2023-11-19T04:49:41;12.40;94.40
69895;DHT22;57172;52.034;5.090;2023-11-19T04:52:11;12.40;94.00
69895;DHT22;57172;52.034;5.090;2023-11-19T04:54:43;12.40;94.60
69895;DHT22;57172;52.034;5.090;2023-11-19T04:57:10;12.40;93.50
69895;DHT22;57172;52.034;5.090;2023-11-19T04:59:40;12.40;94.00
69895;DHT22;57172;52.034;5.090;2023-11-19T05:02:09;12.40;94.00
69895;DHT22;57172;52.034;5.090;2023-11-19T05:04:36;12.40;94.10
69895;DHT22;57172;52.034;5.090;2023-11-19T05:07:04;12.40;94.30
69895;DHT22;57172;52.034;5.090;2023-11-19T05:09:31;12.40;94.00
69895;DHT22;57172;52.034;5.090;2023-11-19T05:11:58;12.40;93.20
69895;DHT22;57172;52.034;5.090;2023-11-19T05:14:25;12.30;93.60
69895;DHT22;57172;52.034;5.090;2023-11-19T05:16:52;12.40;94.00
69895;DHT22;57172;52.034;5.090;2023-11-19T05:19:19;12.30;94.20
69895;DHT22;57172;52.034;5.090;2023-11-19T05:21:46;12.30;94.40
69895;DHT22;57172;52.034;5.090;2023-11-19T05:24:13;12.30;93.80
69895;DHT22;57172;52.034;5.090;2023-11-19T05:26:39;12.30;94.00
69895;DHT22;57172;52.034;5.090;2023-11-19T05:29:07;12.30;93.90
69895;DHT22;57172;52.034;5.090;2023-11-19T05:31:34;12.30;93.90
69895;DHT22;57172;52.034;5.090;2023-11-19T05:34:03;12.30;93.60
69895;DHT22;57172;52.034;5.090;2023-11-19T05:36:31;12.30;94.00
69895;DHT22;57172;52.034;5.090;2023-11-19T05:38:58;12.30;94.20
69895;DHT22;57172;52.034;5.090;2023-11-19T05:41:24;12.30;94.20
69895;DHT22;57172;52.034;5.090;2023-11-19T05:43:51;12.30;94.20
69895;DHT22;57172;52.034;5.090;2023-11-19T05:46:18;12.30;94.10
69895;DHT22;57172;52.034;5.090;2023-11-19T05:48:47;12.30;94.10
69895;DHT22;57172;52.034;5.090;2023-11-19T05:51:14;12.20;94.00
69895;DHT22;57172;52.034;5.090;2023-11-19T05:53:42;12.20;93.90
69895;DHT22;57172;52.034;5.090;2023-11-19T05:56:09;12.20;94.00
69895;DHT22;57172;52.034;5.090;2023-11-19T05:58:37;12.30;94.60
69895;DHT22;57172;52.034;5.090;2023-11-19T06:01:05;12.30;94.50
69895;DHT22;57172;52.034;5.090;2023-11-19T06:03:34;12.30;94.40
69895;DHT22;57172;52.034;5.090;2023-11-19T06:06:01;12.20;94.10
69895;DHT22;57172;52.034;5.090;2023-11-19T06:08:28;12.20;94.50
69895;DHT22;57172;52.034;5.090;2023-11-19T06:10:56;12.20;94.50
69895;DHT22;57172;52.034;5.090;2023-11-19T06:13:23;12.20;94.40
69895;DHT22;57172;52.034;5.090;2023-11-19T06:15:51;12.20;94.50
69895;DHT22;57172;52.034;5.090;2023-11-19T06:18:18;12.20;94.60
69895;DHT22;57172;52.034;5.090;2023-11-19T06:20:47;12.20;94.40
69895;DHT22;57172;52.034;5.090;2023-11-19T06:23:14;12.10;93.90
69895;DHT22;57172;52.034;5.090;2023-11-19T06:25:41;12.10;93.80
69895;DHT22;57172;52.034;5.090;2023-11-19T06:28:08;12.10;94.20
69895;DHT22;57172;52.034;5.090;2023-11-19T06:30:35;12.10;94.50
69895;DHT22;57172;52.034;5.090;2023-11-19T06:33:03;12.10;94.60
69895;DHT22;57172;52.034;5.090;2023-11-19T06:35:30;12.10;94.60
69895;DHT22;57172;52.034;5.090;2023-11-19T06:38:03;12.10;94.60
69895;DHT22;57172;52.034;5.090;2023-11-19T06:40:33;12.10;94.40
69895;DHT22;57172;52.034;5.090;2023-11-19T06:43:02;12.10;94.20
69895;DHT22;57172;52.034;5.090;2023-11-19T06:45:30;12.10;94.50
69895;DHT22;57172;52.034;5.090;2023-11-19T06:47:57;12.10;94.50
69895;DHT22;57172;52.034;5.090;2023-11-19T06:50:25;12.10;94.10
69895;DHT22;57172;52.034;5.090;2023-11-19T06:52:52;12.10;94.20
69895;DHT22;57172;52.034;5.090;2023-11-19T06:55:19;12.10;94.30
69895;DHT22;57172;52.034;5.090;2023-11-19T06:57:46;12.10;94.70
69895;DHT22;57172;52.034;5.090;2023-11-19T07:00:13;12.10;94.60
69895;DHT22;57172;52.034;5.090;2023-11-19T07:02:40;12.10;94.40
69895;DHT22;57172;52.034;5.090;2023-11-19T07:05:07;12.10;94.50
69895;DHT22;57172;52.034;5.090;2023-11-19T07:07:35;12.00;93.90
69895;DHT22;57172;52.034;5.090;2023-11-19T07:10:02;12.00;93.60
69895;DHT22;57172;52.034;5.090;2023-11-19T07:12:31;12.00;94.40
69895;DHT22;57172;52.034;5.090;2023-11-19T07:14:58;12.00;94.00
69895;DHT22;57172;52.034;5.090;2023-11-19T07:17:25;12.00;93.60
69895;DHT22;57172;52.034;5.090;2023-11-19T07:19:52;12.00;94.20
69895;DHT22;57172;52.034;5.090;2023-11-19T07:22:19;12.10;94.60
69895;DHT22;57172;52.034;5.090;2023-11-19T07:24:46;12.10;94.90
69895;DHT22;57172;52.034;5.090;2023-11-19T07:27:13;12.20;95.00
69895;DHT22;57172;52.034;5.090;2023-11-19T07:29:40;12.20;94.40
69895;DHT22;57172;52.034;5.090;2023-11-19T07:32:07;12.20;94.90
69895;DHT22;57172;52.034;5.090;2023-11-19T07:34:35;12.30;94.90
69895;DHT22;57172;52.034;5.090;2023-11-19T07:37:02;12.30;94.70
69895;DHT22;57172;52.034;5.090;2023-11-19T07:39:29;12.30;94.40
69895;DHT22;57172;52.034;5.090;2023-11-19T07:41:56;12.40;94.30
69895;DHT22;57172;52.034;5.090;2023-11-19T07:44:24;12.40;93.70
69895;DHT22;57172;52.034;5.090;2023-11-19T07:46:51;12.30;94.20
69895;DHT22;57172;52.034;5.090;2023-11-19T07:49:18;12.30;93.70
69895;DHT22;57172;52.034;5.090;2023-11-19T07:51:45;12.30;93.80
69895;DHT22;57172;52.034;5.090;2023-11-19T07:54:12;12.30;94.30
69895;DHT22;57172;52.034;5.090;2023-11-19T07:56:40;12.30;94.00
69895;DHT22;57172;52.034;5.090;2023-11-19T07:59:07;12.30;94.50
69895;DHT22;57172;52.034;5.090;2023-11-19T08:01:34;12.30;94.40
69895;DHT22;57172;52.034;5.090;2023-11-19T08:04:01;12.40;94.90
69895;DHT22;57172;52.034;5.090;2023-11-19T08:06:29;12.40;94.90
69895;DHT22;57172;52.034;5.090;2023-11-19T08:08:56;12.40;94.70
69895;DHT22;57172;52.034;5.090;2023-11-19T08:11:23;12.40;94.50
69895;DHT22;57172;52.034;5.090;2023-11-19T08:13:50;12.40;94.50
69895;DHT22;57172;52.034;5.090;2023-11-19T08:16:17;12.50;94.70
69895;DHT22;57172;52.034;5.090;2023-11-19T08:18:44;12.50;93.90
69895;DHT22;57172;52.034;5.090;2023-11-19T08:21:11;12.50;94.30
69895;DHT22;57172;52.034;5.090;2023-11-19T08:23:39;12.50;94.10
69895;DHT22;57172;52.034;5.090;2023-11-19T08:26:07;12.50;94.00
69895;DHT22;57172;52.034;5.090;2023-11-19T08:28:34;12.50;93.70
69895;DHT22;57172;52.034;5.090;2023-11-19T08:31:02;12.50;93.40
69895;DHT22;57172;52.034;5.090;2023-11-19T08:33:31;12.60;93.90
69895;DHT22;57172;52.034;5.090;2023-11-19T08:35:58;12.60;93.90
69895;DHT22;57172;52.034;5.090;2023-11-19T08:38:25;12.60;93.20
69895;DHT22;57172;52.034;5.090;2023-11-19T08:40:55;12.60;94.00
69895;DHT22;57172;52.034;5.090;2023-11-19T08:43:27;12.60;94.50
69895;DHT22;57172;52.034;5.090;2023-11-19T08:45:54;12.70;94.10
69895;DHT22;57172;52.034;5.090;2023-11-19T08:48:21;12.80;94.50
69895;DHT22;57172;52.034;5.090;2023-11-19T08:50:48;12.80;94.40
69895;DHT22;57172;52.034;5.090;2023-11-19T08:53:15;12.90;93.80
69895;DHT22;57172;52.034;5.090;2023-11-19T08:55:42;12.90;94.00
69895;DHT22;57172;52.034;5.090;2023-11-19T08:58:09;12.90;94.20
69895;DHT22;57172;52.034;5.090;2023-11-19T09:00:36;12.90;94.00
69895;DHT22;57172;52.034;5.090;2023-11-19T09:03:03;13.00;94.10
69895;DHT22;57172;52.034;5.090;2023-11-19T09:05:31;13.00;93.60
69895;DHT22;57172;52.034;5.090;2023-11-19T09:07:58;13.10;94.20
69895;DHT22;57172;52.034;5.090;2023-11-19T09:10:25;13.20;93.20
69895;DHT22;57172;52.034;5.090;2023-11-19T09:12:53;13.30;92.40
69895;DHT22;57172;52.034;5.090;2023-11-19T09:15:24;13.30;92.60
69895;DHT22;57172;52.034;5.090;2023-11-19T09:17:50;13.20;91.30
69895;DHT22;57172;52.034;5.090;2023-11-19T09:20:17;13.20;92.50
69895;DHT22;57172;52.034;5.090;2023-11-19T09:22:44;13.30;93.50
69895;DHT22;57172;52.034;5.090;2023-11-19T09:25:11;13.30;94.40
69895;DHT22;57172;52.034;5.090;2023-11-19T09:27:44;13.40;95.10
69895;DHT22;57172;52.034;5.090;2023-11-19T09:30:11;13.50;96.20
69895;DHT22;57172;52.034;5.090;2023-11-19T09:32:38;13.80;98.30
69895;DHT22;57172;52.034;5.090;2023-11-19T09:35:06;14.10;99.90
69895;DHT22;57172;52.034;5.090;2023-11-19T09:37:33;14.40;98.20
69895;DHT22;57172;52.034;5.090;2023-11-19T09:40:00;14.50;95.00
69895;DHT22;57172;52.034;5.090;2023-11-19T09:42:27;14.60;94.30
69895;DHT22;57172;52.034;5.090;2023-11-19T09:44:56;14.50;91.40
69895;DHT22;57172;52.034;5.090;2023-11-19T09:47:25;14.60;94.40
69895;DHT22;57172;52.034;5.090;2023-11-19T09:49:54;14.60;94.00
69895;DHT22;57172;52.034;5.090;2023-11-19T09:52:27;14.50;89.60
69895;DHT22;57172;52.034;5.090;2023-11-19T09:54:54;14.40;88.00
69895;DHT22;57172;52.034;5.090;2023-11-19T09:57:21;14.20;87.60
69895;DHT22;57172;52.034;5.090;2023-11-19T09:59:49;14.10;90.20
69895;DHT22;57172;52.034;5.090;2023-11-19T10:02:17;14.20;93.10
69895;DHT22;57172;52.034;5.090;2023-11-19T10:04:46;14.50;97.10
69895;DHT22;57172;52.034;5.090;2023-11-19T10:07:13;15.00;99.90
69895;DHT22;57172;52.034;5.090;2023-11-19T10:09:40;15.40;99.90
69895;DHT22;57172;52.034;5.090;2023-11-19T10:12:07;15.80;99.90
69895;DHT22;57172;52.034;5.090;2023-11-19T10:14:35;16.20;99.90
69895;DHT22;57172;52.034;5.090;2023-11-19T10:17:07;16.40;99.90
69895;DHT22;57172;52.034;5.090;2023-11-19T10:19:34;16.70;99.90
69895;DHT22;57172;52.034;5.090;2023-11-19T10:22:05;16.90;99.90
69895;DHT22;57172;52.034;5.090;2023-11-19T10:24:33;16.90;99.00
69895;DHT22;57172;52.034;5.090;2023-11-19T10:27:02;17.20;99.90
69895;DHT22;57172;52.034;5.090;2023-11-19T10:29:30;17.40;99.90
69895;DHT22;57172;52.034;5.090;2023-11-19T10:31:58;17.50;92.10
69895;DHT22;57172;52.034;5.090;2023-11-19T10:34:45;17.30;93.90
69895;DHT22;57172;52.034;5.090;2023-11-19T10:37:32;17.30;92.40
69895;DHT22;57172;52.034;5.090;2023-11-19T10:40:00;17.20;91.20
69895;DHT22;57172;52.034;5.090;2023-11-19T10:42:27;17.20;96.50
69895;DHT22;57172;52.034;5.090;2023-11-19T10:44:54;17.40;94.50
69895;DHT22;57172;52.034;5.090;2023-11-19T10:47:23;17.60;97.80
69895;DHT22;57172;52.034;5.090;2023-11-19T10:49:53;17.80;97.60
69895;DHT22;57172;52.034;5.090;2023-11-19T10:52:20;18.10;99.20
69895;DHT22;57172;52.034;5.090;2023-11-19T10:54:50;18.30;98.50
69895;DHT22;57172;52.034;5.090;2023-11-19T10:57:21;18.50;98.60
69895;DHT22;57172;52.034;5.090;2023-11-19T11:00:00;18.70;97.10
69895;DHT22;57172;52.034;5.090;2023-11-19T11:02:30;18.90;94.80
69895;DHT22;57172;52.034;5.090;2023-11-19T11:05:02;18.80;89.10
69895;DHT22;57172;52.034;5.090;2023-11-19T11:07:31;18.20;83.20
69895;DHT22;57172;52.034;5.090;2023-11-19T11:10:07;17.60;82.40
69895;DHT22;57172;52.034;5.090;2023-11-19T11:12:37;17.10;83.60
69895;DHT22;57172;52.034;5.090;2023-11-19T11:15:06;16.70;82.60
69895;DHT22;57172;52.034;5.090;2023-11-19T11:17:34;16.30;81.50
69895;DHT22;57172;52.034;5.090;2023-11-19T11:20:01;16.10;83.00
69895;DHT22;57172;52.034;5.090;2023-11-19T11:22:39;15.90;83.10
69895;DHT22;57172;52.034;5.090;2023-11-19T11:25:12;15.60;84.20
69895;DHT22;57172;52.034;5.090;2023-11-19T11:28:05;15.70;87.70
69895;DHT22;57172;52.034;5.090;2023-11-19T11:35:54;15.50;86.60
69895;DHT22;57172;52.034;5.090;2023-11-19T11:38:22;15.50;85.80
69895;DHT22;57172;52.034;5.090;2023-11-19T11:41:23;15.40;85.90
69895;DHT22;57172;52.034;5.090;2023-11-19T11:43:56;15.30;84.60
69895;DHT22;57172;52.034;5.090;2023-11-19T11:49:03;15.20;86.90
69895;DHT22;57172;52.034;5.090;2023-11-19T11:57:12;15.30;86.50
69895;DHT22;57172;52.034;5.090;2023-11-19T11:59:50;15.40;84.30
69895;DHT22;57172;52.034;5.090;2023-11-19T12:02:22;15.40;83.50
69895;DHT22;57172;52.034;5.090;2023-11-19T12:04:51;15.50;86.00
69895;DHT22;57172;52.034;5.090;2023-11-19T12:07:21;15.60;89.90
69895;DHT22;57172;52.034;5.090;2023-11-19T12:09:52;15.90;89.20
69895;DHT22;57172;52.034;5.090;2023-11-19T12:12:22;16.10;88.60
69895;DHT22;57172;52.034;5.090;2023-11-19T12:20:00;16.40;88.10
69895;DHT22;57172;52.034;5.090;2023-11-19T12:22:27;16.40;86.30
69895;DHT22;57172;52.034;5.090;2023-11-19T12:24:55;16.50;91.00
69895;DHT22;57172;52.034;5.090;2023-11-19T12:27:23;16.80;92.80
69895;DHT22;57172;52.034;5.090;2023-11-19T12:29:50;17.10;94.20
69895;DHT22;57172;52.034;5.090;2023-11-19T12:32:17;17.30;89.80
69895;DHT22;57172;52.034;5.090;2023-11-19T12:34:45;17.40;88.10
69895;DHT22;57172;52.034;5.090;2023-11-19T12:37:12;17.30;84.40
69895;DHT22;57172;52.034;5.090;2023-11-19T12:39:39;17.10;85.00
69895;DHT22;57172;52.034;5.090;2023-11-19T12:42:07;17.00;85.20
69895;DHT22;57172;52.034;5.090;2023-11-19T12:44:34;16.90;86.30
69895;DHT22;57172;52.034;5.090;2023-11-19T12:47:05;16.80;85.10
69895;DHT22;57172;52.034;5.090;2023-11-19T12:49:33;16.70;83.20
69895;DHT22;57172;52.034;5.090;2023-11-19T12:52:01;16.50;81.90
69895;DHT22;57172;52.034;5.090;2023-11-19T12:54:37;16.30;82.90
69895;DHT22;57172;52.034;5.090;2023-11-19T12:57:05;16.00;82.20
69895;DHT22;57172;52.034;5.090;2023-11-19T12:59:32;15.80;82.30
69895;DHT22;57172;52.034;5.090;2023-11-19T13:01:59;15.60;83.20
69895;DHT22;57172;52.034;5.090;2023-11-19T13:04:30;15.50;83.70
69895;DHT22;57172;52.034;5.090;2023-11-19T13:07:00;15.40;83.80
69895;DHT22;57172;52.034;5.090;2023-11-19T13:09:30;15.30;84.00
69895;DHT22;57172;52.034;5.090;2023-11-19T13:11:57;15.10;83.00
69895;DHT22;57172;52.034;5.090;2023-11-19T13:14:36;15.00;83.60
69895;DHT22;57172;52.034;5.090;2023-11-19T13:17:05;14.80;84.80
69895;DHT22;57172;52.034;5.090;2023-11-19T13:19:32;14.60;84.80
69895;DHT22;57172;52.034;5.090;2023-11-19T13:21:59;14.40;84.90
69895;DHT22;57172;52.034;5.090;2023-11-19T13:24:26;14.00;85.90
69895;DHT22;57172;52.034;5.090;2023-11-19T13:26:53;13.70;87.60
69895;DHT22;57172;52.034;5.090;2023-11-19T13:29:20;13.50;89.40
69895;DHT22;57172;52.034;5.090;2023-11-19T13:31:47;13.40;90.50
69895;DHT22;57172;52.034;5.090;2023-11-19T13:34:14;13.30;91.30
69895;DHT22;57172;52.034;5.090;2023-11-19T13:36:41;13.30;91.90
69895;DHT22;57172;52.034;5.090;2023-11-19T13:39:08;13.30;91.80
69895;DHT22;57172;52.034;5.090;2023-11-19T13:41:35;13.30;91.70
69895;DHT22;57172;52.034;5.090;2023-11-19T13:44:03;13.40;91.50
69895;DHT22;57172;52.034;5.090;2023-11-19T13:46:29;13.40;91.60
69895;DHT22;57172;52.034;5.090;2023-11-19T13:48:56;13.40;92.20
69895;DHT22;57172;52.034;5.090;2023-11-19T13:51:23;13.50;91.80
69895;DHT22;57172;52.034;5.090;2023-11-19T13:53:51;13.50;91.20
69895;DHT22;57172;52.034;5.090;2023-11-19T13:56:18;13.50;91.30
69895;DHT22;57172;52.034;5.090;2023-11-19T13:58:45;13.60;92.50
69895;DHT22;57172;52.034;5.090;2023-11-19T14:01:12;13.80;93.80
69895;DHT22;57172;52.034;5.090;2023-11-19T14:03:40;14.00;94.80
69895;DHT22;57172;52.034;5.090;2023-11-19T14:06:08;14.30;95.30
69895;DHT22;57172;52.034;5.090;2023-11-19T14:08:36;14.50;93.30
69895;DHT22;57172;52.034;5.090;2023-11-19T14:11:02;14.50;90.20
69895;DHT22;57172;52.034;5.090;2023-11-19T14:13:29;14.60;88.60
69895;DHT22;57172;52.034;5.090;2023-11-19T14:15:56;14.60;88.20
69895;DHT22;57172;52.034;5.090;2023-11-19T14:18:23;14.50;88.30
69895;DHT22;57172;52.034;5.090;2023-11-19T14:20:50;14.50;88.80
69895;DHT22;57172;52.034;5.090;2023-11-19T14:23:17;14.50;88.60
69895;DHT22;57172;52.034;5.090;2023-11-19T14:25:44;14.40;87.20
69895;DHT22;57172;52.034;5.090;2023-11-19T14:28:11;14.40;87.10
69895;DHT22;57172;52.034;5.090;2023-11-19T14:30:37;14.30;86.80
69895;DHT22;57172;52.034;5.090;2023-11-19T14:33:05;14.20;86.50
69895;DHT22;57172;52.034;5.090;2023-11-19T14:35:32;14.20;85.90
69895;DHT22;57172;52.034;5.090;2023-11-19T14:38:00;14.20;86.30
69895;DHT22;57172;52.034;5.090;2023-11-19T14:40:31;14.10;86.90
69895;DHT22;57172;52.034;5.090;2023-11-19T14:43:01;14.10;87.10
69895;DHT22;57172;52.034;5.090;2023-11-19T14:45:28;14.00;87.30
69895;DHT22;57172;52.034;5.090;2023-11-19T14:48:05;14.00;87.20
69895;DHT22;57172;52.034;5.090;2023-11-19T14:50:32;14.00;87.60
69895;DHT22;57172;52.034;5.090;2023-11-19T14:52:58;13.90;87.70
69895;DHT22;57172;52.034;5.090;2023-11-19T14:55:25;14.00;88.50
69895;DHT22;57172;52.034;5.090;2023-11-19T14:57:53;14.00;88.20
69895;DHT22;57172;52.034;5.090;2023-11-19T15:00:33;14.00;87.90
69895;DHT22;57172;52.034;5.090;2023-11-19T15:03:00;14.10;88.30
69895;DHT22;57172;52.034;5.090;2023-11-19T15:05:27;14.10;88.80
69895;DHT22;57172;52.034;5.090;2023-11-19T15:07:56;14.10;88.30
69895;DHT22;57172;52.034;5.090;2023-11-19T15:10:22;14.10;87.10
69895;DHT22;57172;52.034;5.090;2023-11-19T15:12:52;14.10;87.60
69895;DHT22;57172;52.034;5.090;2023-11-19T15:15:20;14.10;88.30
69895;DHT22;57172;52.034;5.090;2023-11-19T15:17:50;14.00;87.40
69895;DHT22;57172;52.034;5.090;2023-11-19T15:20:17;14.00;86.40
69895;DHT22;57172;52.034;5.090;2023-11-19T15:22:45;14.00;85.90
69895;DHT22;57172;52.034;5.090;2023-11-19T15:25:13;14.00;85.90
69895;DHT22;57172;52.034;5.090;2023-11-19T15:27:40;14.00;86.10
69895;DHT22;57172;52.034;5.090;2023-11-19T15:30:07;13.90;85.70
69895;DHT22;57172;52.034;5.090;2023-11-19T15:32:37;13.90;87.00
69895;DHT22;57172;52.034;5.090;2023-11-19T15:35:06;13.90;87.10
69895;DHT22;57172;52.034;5.090;2023-11-19T15:37:34;13.90;85.70
69895;DHT22;57172;52.034;5.090;2023-11-19T15:40:02;13.90;87.00
69895;DHT22;57172;52.034;5.090;2023-11-19T15:42:32;13.80;86.70
69895;DHT22;57172;52.034;5.090;2023-11-19T15:44:58;13.80;86.40
69895;DHT22;57172;52.034;5.090;2023-11-19T15:47:26;13.80;86.80
69895;DHT22;57172;52.034;5.090;2023-11-19T15:49:52;13.80;86.70
69895;DHT22;57172;52.034;5.090;2023-11-19T15:52:19;13.80;86.80
69895;DHT22;57172;52.034;5.090;2023-11-19T15:54:46;13.70;86.30